sensor_id;sensor_type;location;lat;lon;timestamp;pressure;altitude;pressure_sealevel;temperature;humidity
36242;BME280;22283;42.748;12.732;2023-01-31T00:00:16;98298.81;;;3.94;100.00
36242;BME280;22283;42.748;12.732;2023-01-31T00:05:16;98290.31;;;3.89;100.00
36242;BME280;22283;42.748;12.732;2023-01-31T00:10:19;98298.22;;;3.88;100.00
36242;BME280;22283;42.748;12.732;2023-01-31T00:15:19;98303.72;;;3.82;100.00
36242;BME280;22283;42.748;12.732;2023-01-31T00:20:20;98303.00;;;3.78;100.00
36242;BME280;22283;42.748;12.732;2023-01-31T00:25:21;98300.91;;;3.86;100.00
36242;BME280;22283;42.748;12.732;2023-01-31T00:30:21;98292.13;;;3.87;100.00
36242;BME280;22283;42.748;12.732;2023-01-31T00:35:22;98292.84;;;3.91;100.00
36242;BME280;22283;42.748;12.732;2023-01-31T00:40:23;98285.06;;;3.89;100.00
36242;BME280;22283;42.748;12.732;2023-01-31T00:45:23;98301.63;;;3.90;100.00
36242;BME280;22283;42.748;12.732;2023-01-31T00:50:25;98303.53;;;3.86;100.00
36242;BME280;22283;42.748;12.732;2023-01-31T00:55:29;98302.59;;;3.87;100.00
36242;BME280;22283;42.748;12.732;2023-01-31T01:00:29;98309.69;;;3.85;100.00
36242;BME280;22283;42.748;12.732;2023-01-31T01:05:30;98297.66;;;3.81;100.00
36242;BME280;22283;42.748;12.732;2023-01-31T01:10:31;98301.31;;;3.77;100.00
36242;BME280;22283;42.748;12.732;2023-01-31T01:15:36;98286.16;;;3.65;100.00
36242;BME280;22283;42.748;12.732;2023-01-31T01:20:37;98291.91;;;3.53;100.00
36242;BME280;22283;42.748;12.732;2023-01-31T01:25:44;98292.03;;;3.50;100.00
36242;BME280;22283;42.748;12.732;2023-01-31T01:30:44;98288.16;;;3.38;100.00
36242;BME280;22283;42.748;12.732;2023-01-31T01:35:45;98282.31;;;3.31;100.00
36242;BME280;22283;42.748;12.732;2023-01-31T01:40:46;98276.31;;;3.07;100.00
36242;BME280;22283;42.748;12.732;2023-01-31T01:45:47;98286.47;;;2.93;100.00
36242;BME280;22283;42.748;12.732;2023-01-31T01:50:50;98289.47;;;2.84;100.00
36242;BME280;22283;42.748;12.732;2023-01-31T01:55:54;98292.44;;;2.75;100.00
36242;BME280;22283;42.748;12.732;2023-01-31T02:00:57;98288.66;;;2.60;100.00
36242;BME280;22283;42.748;12.732;2023-01-31T02:06:01;98296.19;;;2.45;100.00
36242;BME280;22283;42.748;12.732;2023-01-31T02:11:22;98290.06;;;2.23;100.00
36242;BME280;22283;42.748;12.732;2023-01-31T02:16:23;98297.88;;;2.00;100.00
36242;BME280;22283;42.748;12.732;2023-01-31T02:37:47;98317.56;;;1.58;100.00
36242;BME280;22283;42.748;12.732;2023-01-31T02:43:07;98309.47;;;1.41;100.00
36242;BME280;22283;42.748;12.732;2023-01-31T02:53:35;98326.84;;;1.14;100.00
36242;BME280;22283;42.748;12.732;2023-01-31T02:58:38;98330.38;;;1.13;100.00
36242;BME280;22283;42.748;12.732;2023-01-31T03:03:40;98337.66;;;1.02;100.00
36242;BME280;22283;42.748;12.732;2023-01-31T03:08:43;98337.88;;;0.95;100.00
36242;BME280;22283;42.748;12.732;2023-01-31T03:24:22;98353.69;;;0.89;100.00
36242;BME280;22283;42.748;12.732;2023-01-31T03:29:27;98352.22;;;0.81;100.00
36242;BME280;22283;42.748;12.732;2023-01-31T03:34:29;98338.44;;;0.77;100.00
36242;BME280;22283;42.748;12.732;2023-01-31T03:40:01;98359.72;;;0.91;100.00
36242;BME280;22283;42.748;12.732;2023-01-31T03:45:27;98362.84;;;0.73;100.00
36242;BME280;22283;42.748;12.732;2023-01-31T03:50:36;98365.31;;;0.78;100.00
36242;BME280;22283;42.748;12.732;2023-01-31T04:00:47;98374.94;;;0.76;100.00
36242;BME280;22283;42.748;12.732;2023-01-31T04:05:49;98372.88;;;0.57;100.00
36242;BME280;22283;42.748;12.732;2023-01-31T04:10:53;98363.94;;;0.36;100.00
36242;BME280;22283;42.748;12.732;2023-01-31T04:15:54;98377.53;;;0.46;100.00
36242;BME280;22283;42.748;12.732;2023-01-31T04:20:55;98374.94;;;0.46;100.00
36242;BME280;22283;42.748;12.732;2023-01-31T04:25:55;98369.03;;;0.39;100.00
36242;BME280;22283;42.748;12.732;2023-01-31T04:30:56;98371.25;;;0.22;100.00
36242;BME280;22283;42.748;12.732;2023-01-31T04:35:57;98367.19;;;0.13;100.00
36242;BME280;22283;42.748;12.732;2023-01-31T04:40:57;98375.44;;;-0.04;100.00
36242;BME280;22283;42.748;12.732;2023-01-31T04:45:58;98372.09;;;-0.09;100.00
36242;BME280;22283;42.748;12.732;2023-01-31T04:50:59;98368.50;;;-0.03;100.00
36242;BME280;22283;42.748;12.732;2023-01-31T04:56:00;98376.25;;;-0.02;100.00
36242;BME280;22283;42.748;12.732;2023-01-31T05:01:01;98365.44;;;-0.19;100.00
36242;BME280;22283;42.748;12.732;2023-01-31T05:06:01;98387.81;;;-0.12;100.00
36242;BME280;22283;42.748;12.732;2023-01-31T05:11:04;98386.97;;;-0.14;100.00
36242;BME280;22283;42.748;12.732;2023-01-31T05:16:10;98377.47;;;-0.15;100.00
36242;BME280;22283;42.748;12.732;2023-01-31T05:21:11;98391.66;;;0.06;100.00
36242;BME280;22283;42.748;12.732;2023-01-31T05:26:11;98397.91;;;-0.01;100.00
36242;BME280;22283;42.748;12.732;2023-01-31T05:31:12;98397.63;;;-0.23;100.00
36242;BME280;22283;42.748;12.732;2023-01-31T05:36:13;98398.59;;;-0.27;100.00
36242;BME280;22283;42.748;12.732;2023-01-31T05:41:14;98391.09;;;-0.39;100.00
36242;BME280;22283;42.748;12.732;2023-01-31T05:46:14;98396.31;;;-0.41;100.00
36242;BME280;22283;42.748;12.732;2023-01-31T05:51:15;98410.28;;;-0.45;100.00
36242;BME280;22283;42.748;12.732;2023-01-31T05:56:16;98409.13;;;-0.69;100.00
36242;BME280;22283;42.748;12.732;2023-01-31T06:01:17;98418.91;;;-0.80;100.00
36242;BME280;22283;42.748;12.732;2023-01-31T06:06:19;98420.72;;;-0.82;100.00
36242;BME280;22283;42.748;12.732;2023-01-31T06:11:20;98432.22;;;-0.94;100.00
36242;BME280;22283;42.748;12.732;2023-01-31T06:16:21;98430.53;;;-0.96;100.00
36242;BME280;22283;42.748;12.732;2023-01-31T06:21:21;98427.94;;;-0.96;100.00
36242;BME280;22283;42.748;12.732;2023-01-31T06:26:23;98441.94;;;-1.04;100.00
36242;BME280;22283;42.748;12.732;2023-01-31T06:31:23;98453.97;;;-1.00;100.00
36242;BME280;22283;42.748;12.732;2023-01-31T06:36:24;98465.69;;;-0.80;100.00
36242;BME280;22283;42.748;12.732;2023-01-31T06:41:24;98474.94;;;-0.67;100.00
36242;BME280;22283;42.748;12.732;2023-01-31T06:46:25;98486.41;;;-0.77;100.00
36242;BME280;22283;42.748;12.732;2023-01-31T06:51:26;98506.22;;;-0.73;100.00
36242;BME280;22283;42.748;12.732;2023-01-31T06:56:26;98522.44;;;-0.62;100.00
36242;BME280;22283;42.748;12.732;2023-01-31T07:01:27;98530.25;;;-0.62;100.00
36242;BME280;22283;42.748;12.732;2023-01-31T07:06:28;98547.09;;;-0.41;100.00
36242;BME280;22283;42.748;12.732;2023-01-31T07:11:28;98541.41;;;-0.19;100.00
36242;BME280;22283;42.748;12.732;2023-01-31T07:16:29;98553.34;;;0.25;100.00
36242;BME280;22283;42.748;12.732;2023-01-31T07:21:30;98566.13;;;0.67;100.00
36242;BME280;22283;42.748;12.732;2023-01-31T07:26:32;98565.50;;;0.91;100.00
36242;BME280;22283;42.748;12.732;2023-01-31T07:31:34;98563.44;;;1.03;100.00
36242;BME280;22283;42.748;12.732;2023-01-31T07:36:34;98564.63;;;1.22;100.00
36242;BME280;22283;42.748;12.732;2023-01-31T07:41:35;98573.69;;;1.40;100.00
36242;BME280;22283;42.748;12.732;2023-01-31T07:46:40;98575.00;;;1.55;100.00
36242;BME280;22283;42.748;12.732;2023-01-31T07:51:41;98583.31;;;1.67;100.00
36242;BME280;22283;42.748;12.732;2023-01-31T07:56:42;98589.16;;;1.74;100.00
36242;BME280;22283;42.748;12.732;2023-01-31T08:01:43;98598.28;;;1.89;100.00
36242;BME280;22283;42.748;12.732;2023-01-31T08:07:02;98600.59;;;2.00;100.00
36242;BME280;22283;42.748;12.732;2023-01-31T08:12:05;98596.41;;;2.22;100.00
36242;BME280;22283;42.748;12.732;2023-01-31T08:17:07;98604.13;;;2.52;100.00
36242;BME280;22283;42.748;12.732;2023-01-31T08:22:08;98618.97;;;2.76;100.00
36242;BME280;22283;42.748;12.732;2023-01-31T08:27:08;98630.41;;;2.99;100.00
36242;BME280;22283;42.748;12.732;2023-01-31T08:32:09;98647.75;;;3.26;100.00
36242;BME280;22283;42.748;12.732;2023-01-31T08:37:10;98646.09;;;3.49;100.00
36242;BME280;22283;42.748;12.732;2023-01-31T08:42:10;98652.94;;;3.76;100.00
36242;BME280;22283;42.748;12.732;2023-01-31T08:47:11;98665.81;;;4.04;99.85
36242;BME280;22283;42.748;12.732;2023-01-31T08:52:12;98660.72;;;4.45;96.78
36242;BME280;22283;42.748;12.732;2023-01-31T08:57:12;98660.47;;;4.73;96.43
36242;BME280;22283;42.748;12.732;2023-01-31T09:02:13;98668.22;;;4.97;94.68
36242;BME280;22283;42.748;12.732;2023-01-31T09:07:13;98669.16;;;5.16;91.40
36242;BME280;22283;42.748;12.732;2023-01-31T09:12:14;98661.38;;;5.54;88.30
36242;BME280;22283;42.748;12.732;2023-01-31T09:17:15;98647.31;;;5.75;83.89
36242;BME280;22283;42.748;12.732;2023-01-31T09:22:15;98659.22;;;6.03;80.62
36242;BME280;22283;42.748;12.732;2023-01-31T09:27:16;98647.06;;;6.19;76.50
36242;BME280;22283;42.748;12.732;2023-01-31T09:32:17;98640.78;;;6.40;75.22
36242;BME280;22283;42.748;12.732;2023-01-31T09:37:19;98651.97;;;6.63;76.96
36242;BME280;22283;42.748;12.732;2023-01-31T09:42:27;98659.25;;;6.75;76.57
36242;BME280;22283;42.748;12.732;2023-01-31T09:47:37;98669.41;;;6.83;75.59
36242;BME280;22283;42.748;12.732;2023-01-31T09:52:40;98668.63;;;6.98;73.16
36242;BME280;22283;42.748;12.732;2023-01-31T10:08:18;98657.63;;;7.75;67.42
36242;BME280;22283;42.748;12.732;2023-01-31T10:13:30;98647.63;;;7.82;64.01
36242;BME280;22283;42.748;12.732;2023-01-31T10:18:38;98648.34;;;8.17;58.74
36242;BME280;22283;42.748;12.732;2023-01-31T10:29:20;98668.53;;;8.50;64.00
36242;BME280;22283;42.748;12.732;2023-01-31T10:40:14;98676.66;;;8.29;66.55
36242;BME280;22283;42.748;12.732;2023-01-31T10:45:24;98664.22;;;8.31;68.10
36242;BME280;22283;42.748;12.732;2023-01-31T10:50:48;98659.50;;;8.38;68.79
36242;BME280;22283;42.748;12.732;2023-01-31T10:55:58;98665.34;;;8.59;69.48
36242;BME280;22283;42.748;12.732;2023-01-31T11:01:04;98663.41;;;8.47;67.60
36242;BME280;22283;42.748;12.732;2023-01-31T11:06:10;98649.97;;;8.35;66.94
36242;BME280;22283;42.748;12.732;2023-01-31T11:11:18;98658.66;;;8.37;63.64
36242;BME280;22283;42.748;12.732;2023-01-31T11:16:19;98636.34;;;8.59;64.29
36242;BME280;22283;42.748;12.732;2023-01-31T11:21:26;98635.13;;;8.80;65.18
36242;BME280;22283;42.748;12.732;2023-01-31T11:26:35;98632.03;;;8.88;61.12
36242;BME280;22283;42.748;12.732;2023-01-31T11:31:40;98642.22;;;8.94;62.44
36242;BME280;22283;42.748;12.732;2023-01-31T11:36:43;98626.72;;;9.04;62.39
36242;BME280;22283;42.748;12.732;2023-01-31T11:41:47;98617.13;;;9.17;58.18
36242;BME280;22283;42.748;12.732;2023-01-31T11:47:01;98622.50;;;9.30;57.47
36242;BME280;22283;42.748;12.732;2023-01-31T11:52:15;98612.72;;;9.32;56.48
36242;BME280;22283;42.748;12.732;2023-01-31T11:57:21;98614.53;;;9.31;54.16
36242;BME280;22283;42.748;12.732;2023-01-31T12:02:29;98606.97;;;9.40;53.56
36242;BME280;22283;42.748;12.732;2023-01-31T12:07:41;98602.38;;;9.43;52.47
36242;BME280;22283;42.748;12.732;2023-01-31T12:12:42;98601.31;;;9.46;48.69
36242;BME280;22283;42.748;12.732;2023-01-31T12:17:45;98595.09;;;9.61;49.27
36242;BME280;22283;42.748;12.732;2023-01-31T12:34:14;98585.63;;;9.85;48.09
36242;BME280;22283;42.748;12.732;2023-01-31T12:44:14;98581.16;;;10.00;41.34
36242;BME280;22283;42.748;12.732;2023-01-31T13:04:58;98593.94;;;10.49;40.22
36242;BME280;22283;42.748;12.732;2023-01-31T13:10:03;98586.84;;;10.50;37.91
36242;BME280;22283;42.748;12.732;2023-01-31T13:15:27;98576.97;;;10.52;37.12
36242;BME280;22283;42.748;12.732;2023-01-31T13:20:35;98581.75;;;10.47;37.69
36242;BME280;22283;42.748;12.732;2023-01-31T13:25:42;98572.47;;;10.54;35.63
36242;BME280;22283;42.748;12.732;2023-01-31T13:31:01;98573.50;;;10.51;34.85
36242;BME280;22283;42.748;12.732;2023-01-31T13:41:31;98574.34;;;10.52;33.12
36242;BME280;22283;42.748;12.732;2023-01-31T13:47:05;98583.97;;;10.53;33.24
36242;BME280;22283;42.748;12.732;2023-01-31T13:52:17;98575.50;;;10.48;32.67
36242;BME280;22283;42.748;12.732;2023-01-31T13:57:24;98582.94;;;10.55;31.65
36242;BME280;22283;42.748;12.732;2023-01-31T14:02:26;98589.75;;;10.72;31.17
36242;BME280;22283;42.748;12.732;2023-01-31T14:07:27;98582.31;;;10.65;30.55
36242;BME280;22283;42.748;12.732;2023-01-31T14:12:36;98586.38;;;10.70;30.03
36242;BME280;22283;42.748;12.732;2023-01-31T14:17:58;98584.88;;;10.66;29.84
36242;BME280;22283;42.748;12.732;2023-01-31T14:28:24;98590.03;;;10.55;30.92
36242;BME280;22283;42.748;12.732;2023-01-31T14:33:26;98598.34;;;10.49;30.31
36242;BME280;22283;42.748;12.732;2023-01-31T14:49:24;98611.50;;;10.50;30.68
36242;BME280;22283;42.748;12.732;2023-01-31T14:54:43;98611.19;;;10.55;31.08
36242;BME280;22283;42.748;12.732;2023-01-31T15:16:32;98621.94;;;10.25;30.37
36242;BME280;22283;42.748;12.732;2023-01-31T15:21:57;98626.66;;;10.05;30.53
36242;BME280;22283;42.748;12.732;2023-01-31T15:27:06;98626.22;;;9.99;31.19
36242;BME280;22283;42.748;12.732;2023-01-31T15:32:21;98629.63;;;9.44;36.55
36242;BME280;22283;42.748;12.732;2023-01-31T15:37:31;98630.53;;;8.84;37.08
36242;BME280;22283;42.748;12.732;2023-01-31T15:42:33;98633.22;;;8.36;39.49
36242;BME280;22283;42.748;12.732;2023-01-31T15:47:34;98638.53;;;7.87;41.81
36242;BME280;22283;42.748;12.732;2023-01-31T15:52:34;98644.22;;;7.47;43.72
36242;BME280;22283;42.748;12.732;2023-01-31T15:57:45;98655.09;;;7.06;45.48
36242;BME280;22283;42.748;12.732;2023-01-31T16:02:48;98668.22;;;6.71;47.82
36242;BME280;22283;42.748;12.732;2023-01-31T16:07:49;98680.41;;;6.36;50.81
36242;BME280;22283;42.748;12.732;2023-01-31T16:12:50;98696.13;;;6.00;53.13
36242;BME280;22283;42.748;12.732;2023-01-31T16:17:54;98694.97;;;5.66;54.84
36242;BME280;22283;42.748;12.732;2023-01-31T16:22:55;98699.91;;;5.33;55.16
36242;BME280;22283;42.748;12.732;2023-01-31T16:27:57;98703.50;;;5.30;55.21
36242;BME280;22283;42.748;12.732;2023-01-31T16:33:01;98699.59;;;5.20;55.41
36242;BME280;22283;42.748;12.732;2023-01-31T16:38:23;98695.28;;;5.19;55.27
36242;BME280;22283;42.748;12.732;2023-01-31T16:43:27;98713.34;;;5.05;55.44
36242;BME280;22283;42.748;12.732;2023-01-31T16:53:33;98725.13;;;4.94;55.94
36242;BME280;22283;42.748;12.732;2023-01-31T17:03:46;98742.56;;;4.52;57.61
36242;BME280;22283;42.748;12.732;2023-01-31T17:08:59;98750.66;;;4.46;57.67
36242;BME280;22283;42.748;12.732;2023-01-31T17:14:00;98730.66;;;4.43;57.12
36242;BME280;22283;42.748;12.732;2023-01-31T17:19:00;98740.53;;;4.36;57.18
36242;BME280;22283;42.748;12.732;2023-01-31T17:24:01;98751.03;;;4.13;58.27
36242;BME280;22283;42.748;12.732;2023-01-31T17:29:02;98745.53;;;3.95;58.56
36242;BME280;22283;42.748;12.732;2023-01-31T17:34:02;98746.00;;;3.83;58.64
36242;BME280;22283;42.748;12.732;2023-01-31T17:39:05;98754.34;;;3.44;59.29
36242;BME280;22283;42.748;12.732;2023-01-31T17:44:08;98756.91;;;3.21;60.25
36242;BME280;22283;42.748;12.732;2023-01-31T17:49:11;98755.88;;;2.99;62.09
36242;BME280;22283;42.748;12.732;2023-01-31T17:54:12;98763.50;;;2.78;61.67
36242;BME280;22283;42.748;12.732;2023-01-31T17:59:12;98756.56;;;2.77;61.47
36242;BME280;22283;42.748;12.732;2023-01-31T18:04:13;98766.38;;;2.69;61.98
36242;BME280;22283;42.748;12.732;2023-01-31T18:09:14;98766.06;;;2.52;62.78
36242;BME280;22283;42.748;12.732;2023-01-31T18:14:16;98762.00;;;2.71;61.72
36242;BME280;22283;42.748;12.732;2023-01-31T18:19:17;98758.28;;;2.78;61.46
36242;BME280;22283;42.748;12.732;2023-01-31T18:24:17;98776.22;;;2.61;62.71
36242;BME280;22283;42.748;12.732;2023-01-31T18:29:18;98776.75;;;2.44;63.79
36242;BME280;22283;42.748;12.732;2023-01-31T18:34:20;98785.50;;;2.71;62.25
36242;BME280;22283;42.748;12.732;2023-01-31T18:39:21;98790.28;;;2.57;62.39
36242;BME280;22283;42.748;12.732;2023-01-31T18:44:23;98789.13;;;2.37;62.37
36242;BME280;22283;42.748;12.732;2023-01-31T18:49:23;98803.63;;;2.18;64.26
36242;BME280;22283;42.748;12.732;2023-01-31T18:54:24;98801.25;;;2.10;65.44
36242;BME280;22283;42.748;12.732;2023-01-31T18:59:25;98792.44;;;2.13;64.62
36242;BME280;22283;42.748;12.732;2023-01-31T19:04:26;98789.69;;;2.19;64.61
36242;BME280;22283;42.748;12.732;2023-01-31T19:09:27;98801.69;;;1.93;65.79
36242;BME280;22283;42.748;12.732;2023-01-31T19:14:27;98815.47;;;1.66;66.33
36242;BME280;22283;42.748;12.732;2023-01-31T19:19:29;98807.50;;;1.38;67.16
36242;BME280;22283;42.748;12.732;2023-01-31T19:24:30;98817.25;;;1.31;67.56
36242;BME280;22283;42.748;12.732;2023-01-31T19:29:30;98814.75;;;1.61;66.87
36242;BME280;22283;42.748;12.732;2023-01-31T19:34:31;98816.81;;;1.48;67.41
36242;BME280;22283;42.748;12.732;2023-01-31T19:39:32;98821.41;;;1.38;67.23
36242;BME280;22283;42.748;12.732;2023-01-31T19:44:39;98816.50;;;1.26;67.99
36242;BME280;22283;42.748;12.732;2023-01-31T19:49:40;98813.75;;;1.32;68.20
36242;BME280;22283;42.748;12.732;2023-01-31T19:54:41;98823.47;;;1.26;68.01
36242;BME280;22283;42.748;12.732;2023-01-31T19:59:41;98825.13;;;1.62;65.77
36242;BME280;22283;42.748;12.732;2023-01-31T20:04:43;98812.13;;;1.61;65.08
36242;BME280;22283;42.748;12.732;2023-01-31T20:09:44;98808.03;;;1.52;66.04
36242;BME280;22283;42.748;12.732;2023-01-31T20:14:45;98819.69;;;1.37;66.45
36242;BME280;22283;42.748;12.732;2023-01-31T20:19:45;98820.53;;;1.02;68.08
36242;BME280;22283;42.748;12.732;2023-01-31T20:24:46;98816.06;;;1.09;67.07
36242;BME280;22283;42.748;12.732;2023-01-31T20:29:47;98820.53;;;1.04;66.90
36242;BME280;22283;42.748;12.732;2023-01-31T20:34:48;98821.00;;;0.84;69.43
36242;BME280;22283;42.748;12.732;2023-01-31T20:39:48;98828.09;;;0.77;68.41
36242;BME280;22283;42.748;12.732;2023-01-31T20:44:49;98817.59;;;0.80;67.43
36242;BME280;22283;42.748;12.732;2023-01-31T20:49:49;98816.53;;;0.89;67.52
36242;BME280;22283;42.748;12.732;2023-01-31T20:54:50;98814.84;;;0.86;67.85
36242;BME280;22283;42.748;12.732;2023-01-31T20:59:51;98821.69;;;0.92;66.03
36242;BME280;22283;42.748;12.732;2023-01-31T21:04:51;98831.16;;;1.30;64.23
36242;BME280;22283;42.748;12.732;2023-01-31T21:09:52;98821.63;;;1.29;65.13
36242;BME280;22283;42.748;12.732;2023-01-31T21:14:54;98824.88;;;1.39;64.85
36242;BME280;22283;42.748;12.732;2023-01-31T21:19:55;98815.16;;;1.10;65.78
36242;BME280;22283;42.748;12.732;2023-01-31T21:24:55;98814.84;;;0.86;67.01
36242;BME280;22283;42.748;12.732;2023-01-31T21:29:56;98817.38;;;0.89;66.88
36242;BME280;22283;42.748;12.732;2023-01-31T21:34:56;98814.13;;;1.17;65.26
36242;BME280;22283;42.748;12.732;2023-01-31T21:39:57;98820.53;;;1.04;65.89
36242;BME280;22283;42.748;12.732;2023-01-31T21:44:57;98785.22;;;1.60;62.47
36242;BME280;22283;42.748;12.732;2023-01-31T21:49:58;98794.97;;;1.85;61.29
36242;BME280;22283;42.748;12.732;2023-01-31T21:54:59;98807.00;;;1.58;61.72
36242;BME280;22283;42.748;12.732;2023-01-31T21:59:59;98828.50;;;1.33;62.46
36242;BME280;22283;42.748;12.732;2023-01-31T22:05:00;98832.22;;;0.87;66.51
36242;BME280;22283;42.748;12.732;2023-01-31T22:10:00;98828.53;;;0.96;63.06
36242;BME280;22283;42.748;12.732;2023-01-31T22:15:01;98845.06;;;0.93;63.69
36242;BME280;22283;42.748;12.732;2023-01-31T22:20:02;98849.03;;;0.71;64.62
36242;BME280;22283;42.748;12.732;2023-01-31T22:25:03;98845.84;;;0.60;66.72
36242;BME280;22283;42.748;12.732;2023-01-31T22:30:04;98849.03;;;0.71;66.66
36242;BME280;22283;42.748;12.732;2023-01-31T22:35:05;98859.03;;;0.52;66.85
36242;BME280;22283;42.748;12.732;2023-01-31T22:40:06;98864.22;;;0.52;67.02
36242;BME280;22283;42.748;12.732;2023-01-31T22:45:07;98865.63;;;0.68;66.78
36242;BME280;22283;42.748;12.732;2023-01-31T22:50:08;98863.13;;;0.64;67.00
36242;BME280;22283;42.748;12.732;2023-01-31T22:55:09;98858.28;;;0.45;68.65
36242;BME280;22283;42.748;12.732;2023-01-31T23:00:10;98865.94;;;0.53;69.14
36242;BME280;22283;42.748;12.732;2023-01-31T23:05:10;98872.44;;;0.32;69.98
36242;BME280;22283;42.748;12.732;2023-01-31T23:10:11;98869.22;;;0.19;69.85
36242;BME280;22283;42.748;12.732;2023-01-31T23:15:12;98857.78;;;0.27;70.61
36242;BME280;22283;42.748;12.732;2023-01-31T23:20:17;98856.94;;;0.26;71.74
36242;BME280;22283;42.748;12.732;2023-01-31T23:25:18;98850.09;;;0.22;72.30
36242;BME280;22283;42.748;12.732;2023-01-31T23:30:19;98838.66;;;0.29;72.37
36242;BME280;22283;42.748;12.732;2023-01-31T23:35:20;98826.28;;;0.40;72.10
36242;BME280;22283;42.748;12.732;2023-01-31T23:40:21;98810.41;;;0.53;71.83
36242;BME280;22283;42.748;12.732;2023-01-31T23:45:22;98805.38;;;0.45;70.76
36242;BME280;22283;42.748;12.732;2023-01-31T23:50:23;98809.88;;;0.37;69.78
36242;BME280;22283;42.748;12.732;2023-01-31T23:55:24;98802.78;;;0.43;71.05
